createdAt,value
2022-11-20T00:01:36.207Z,7.74
2022-11-20T00:07:05.633Z,8.04
2022-11-20T00:12:35.196Z,7.13
2022-11-20T00:18:05.027Z,6.52
2022-11-20T00:23:43.304Z,6.01
2022-11-20T00:29:07.306Z,6.26
2022-11-20T00:34:53.048Z,6.33
2022-11-20T00:40:23.909Z,6.61
2022-11-20T00:45:57.413Z,6.09
2022-11-20T00:51:24.162Z,6.85
2022-11-20T00:57:03.879Z,7.12
2022-11-20T01:02:47.233Z,6.02
2022-11-20T01:08:29.904Z,6.35
2022-11-20T01:14:04.186Z,8.09
2022-11-20T01:19:34.186Z,7.05
2022-11-20T01:25:05.621Z,7.39
2022-11-20T01:30:33.654Z,6.20
2022-11-20T01:36:00.639Z,6.85
2022-11-20T01:41:35.474Z,7.23
2022-11-20T01:47:00.000Z,6.08
2022-11-20T01:52:26.866Z,7.87
2022-11-20T01:57:57.028Z,6.94
2022-11-20T02:03:24.130Z,6.79
2022-11-20T02:08:53.538Z,6.52
2022-11-20T02:14:19.031Z,6.99
2022-11-20T02:19:44.016Z,6.90
2022-11-20T02:25:09.050Z,7.47
2022-11-20T02:30:35.515Z,6.90
2022-11-20T02:36:12.766Z,6.56
2022-11-20T02:41:48.647Z,6.18
2022-11-20T02:47:18.450Z,7.05
2022-11-20T02:52:54.334Z,6.39
2022-11-20T02:58:35.800Z,6.10
2022-11-20T03:03:59.373Z,7.22
2022-11-20T03:09:27.785Z,7.42
2022-11-20T03:14:53.328Z,6.58
2022-11-20T03:20:15.663Z,6.22
2022-11-20T03:25:47.750Z,6.94
2022-11-20T03:31:24.199Z,6.41
2022-11-20T03:36:47.133Z,6.77
2022-11-20T03:42:09.379Z,6.70
2022-11-20T03:47:35.804Z,5.91
2022-11-20T03:52:59.639Z,5.93
2022-11-20T03:58:24.593Z,7.20
2022-11-20T04:03:54.624Z,7.31
2022-11-20T04:09:21.269Z,7.37
2022-11-20T04:14:48.287Z,7.43
2022-11-20T04:20:12.250Z,8.65
2022-11-20T04:26:07.547Z,8.31
2022-11-20T04:32:00.820Z,8.40
2022-11-20T04:37:27.527Z,8.54
2022-11-20T04:43:00.159Z,7.48
2022-11-20T04:48:34.036Z,8.42
2022-11-20T04:54:01.721Z,7.28
2022-11-20T04:59:24.713Z,7.34
2022-11-20T05:04:46.993Z,7.55
2022-11-20T05:10:14.950Z,6.85
2022-11-20T05:16:06.388Z,8.36
2022-11-20T05:21:33.883Z,6.88
2022-11-20T05:27:08.981Z,7.16
2022-11-20T05:32:35.308Z,7.04
2022-11-20T05:38:01.682Z,6.84
2022-11-20T05:43:24.162Z,7.06
2022-11-20T05:48:50.331Z,6.85
2022-11-20T05:54:25.245Z,8.52
2022-11-20T05:59:49.358Z,6.99
2022-11-20T06:05:14.957Z,7.79
2022-11-20T06:10:39.217Z,6.84
2022-11-20T06:16:04.539Z,7.36
2022-11-20T06:21:28.073Z,9.41
2022-11-20T06:26:51.143Z,7.47
2022-11-20T06:32:17.521Z,8.15
2022-11-20T06:37:44.633Z,7.82
2022-11-20T06:43:09.035Z,8.17
2022-11-20T06:48:35.451Z,7.55
2022-11-20T06:53:56.346Z,7.47
2022-11-20T06:59:21.400Z,7.64
2022-11-20T07:04:47.370Z,7.77
2022-11-20T07:10:09.311Z,7.85
2022-11-20T07:15:36.568Z,8.05
2022-11-20T07:20:58.672Z,7.94
2022-11-20T07:26:23.352Z,7.35
2022-11-20T07:31:46.077Z,8.61
2022-11-20T07:37:12.933Z,8.76
2022-11-20T07:42:36.624Z,8.68
2022-11-20T07:48:03.165Z,8.15
2022-11-20T07:53:27.939Z,8.43
2022-11-20T07:58:53.960Z,8.10
2022-11-20T08:04:17.296Z,8.48
2022-11-20T08:09:38.886Z,8.53
2022-11-20T08:15:11.382Z,8.94
2022-11-20T08:20:28.037Z,10.99
2022-11-20T08:25:51.708Z,11.84
2022-11-20T08:31:15.477Z,9.91
2022-11-20T08:36:40.475Z,8.87
2022-11-20T08:42:07.708Z,11.60
2022-11-20T08:47:33.697Z,11.61
2022-11-20T08:52:56.225Z,10.83
2022-11-20T08:58:23.008Z,11.35
2022-11-20T09:03:46.647Z,11.11
2022-11-20T09:09:12.001Z,11.95
2022-11-20T09:14:36.109Z,12.19
2022-11-20T09:20:01.080Z,10.77
2022-11-20T09:25:28.005Z,10.87
2022-11-20T09:30:54.193Z,10.36
2022-11-20T09:36:18.169Z,11.67
2022-11-20T09:41:46.040Z,11.41
2022-11-20T09:47:21.216Z,11.24
2022-11-20T09:52:44.819Z,12.14
2022-11-20T09:58:08.342Z,11.08
2022-11-20T10:03:31.978Z,11.44
2022-11-20T10:08:59.631Z,10.41
2022-11-20T10:14:35.488Z,11.56
2022-11-20T10:20:03.979Z,11.18
2022-11-20T10:25:30.900Z,11.12
2022-11-20T10:30:58.497Z,11.54
2022-11-20T10:36:20.288Z,10.33
2022-11-20T10:41:41.992Z,10.61
2022-11-20T10:47:03.148Z,11.36
2022-11-20T10:52:26.311Z,10.54
2022-11-20T10:57:54.372Z,10.89
2022-11-20T11:03:23.035Z,11.49
2022-11-20T11:08:47.687Z,9.64
2022-11-20T11:14:14.871Z,10.52
2022-11-20T11:19:41.851Z,10.56
2022-11-20T11:25:13.822Z,10.10
2022-11-20T11:30:45.160Z,10.10
2022-11-20T11:36:11.519Z,10.37
2022-11-20T11:41:40.483Z,10.89
2022-11-20T11:47:04.233Z,9.35
2022-11-20T11:52:31.527Z,9.75
2022-11-20T11:57:55.583Z,10.21
2022-11-20T12:03:20.548Z,8.95
2022-11-20T12:08:43.801Z,9.84
2022-11-20T12:14:05.972Z,10.08
2022-11-20T12:19:33.446Z,9.66
2022-11-20T12:25:01.055Z,10.42
2022-11-20T12:30:25.341Z,10.17
2022-11-20T12:35:53.052Z,9.94
2022-11-20T12:41:22.024Z,10.83
2022-11-20T12:47:01.632Z,10.86
2022-11-20T12:52:30.973Z,11.52
2022-11-20T12:58:00.032Z,12.32
2022-11-20T13:03:26.649Z,13.13
2022-11-20T13:08:58.290Z,12.49
2022-11-20T13:14:25.572Z,10.92
2022-11-20T13:19:52.513Z,10.96
2022-11-20T13:25:16.644Z,10.48
2022-11-20T13:30:44.580Z,11.36
2022-11-20T13:36:10.319Z,11.04
2022-11-20T13:41:43.455Z,10.62
2022-11-20T13:47:12.571Z,10.88
2022-11-20T13:52:45.078Z,9.03
2022-11-20T13:58:06.787Z,9.69
2022-11-20T14:04:06.214Z,9.66
2022-11-20T14:09:23.411Z,10.35
2022-11-20T14:14:49.871Z,10.48
2022-11-20T14:20:11.474Z,10.89
2022-11-20T14:25:36.177Z,9.25
2022-11-20T14:31:05.416Z,10.67
2022-11-20T14:36:33.958Z,11.01
2022-11-20T14:41:58.774Z,9.87
2022-11-20T14:47:32.372Z,9.23
2022-11-20T14:52:59.260Z,10.10
2022-11-20T14:58:26.488Z,9.17
2022-11-20T15:03:51.555Z,8.32
2022-11-20T15:09:17.588Z,8.19
2022-11-20T15:14:42.957Z,8.32
2022-11-20T15:20:10.659Z,8.53
2022-11-20T15:25:38.593Z,8.58
2022-11-20T15:31:03.522Z,9.08
2022-11-20T15:36:29.692Z,8.39
2022-11-20T15:41:55.433Z,7.88
2022-11-20T15:47:21.815Z,7.88
2022-11-20T15:52:43.374Z,6.30
2022-11-20T15:58:09.717Z,6.55
2022-11-20T16:03:36.421Z,4.89
2022-11-20T16:08:59.686Z,3.68
2022-11-20T16:14:24.256Z,3.19
2022-11-20T16:19:51.273Z,2.47
2022-11-20T16:25:16.432Z,1.87
2022-11-20T16:30:37.622Z,2.13
2022-11-20T16:36:01.147Z,2.19
2022-11-20T16:41:28.740Z,2.12
2022-11-20T16:46:55.388Z,2.34
2022-11-20T16:52:18.370Z,1.50
2022-11-20T16:57:44.486Z,1.85
2022-11-20T17:03:07.971Z,2.59
2022-11-20T17:08:33.818Z,2.93
2022-11-20T17:13:57.718Z,2.49
2022-11-20T17:19:21.244Z,2.13
2022-11-20T17:24:48.486Z,2.38
2022-11-20T17:30:13.733Z,1.67
2022-11-20T17:35:41.077Z,1.70
2022-11-20T17:41:09.706Z,1.94
2022-11-20T17:46:34.844Z,1.90
2022-11-20T17:51:58.159Z,1.66
2022-11-20T17:57:25.777Z,1.57
2022-11-20T18:02:52.478Z,1.67
2022-11-20T18:08:17.378Z,1.58
2022-11-20T18:13:47.564Z,1.49
2022-11-20T18:19:09.147Z,1.56
2022-11-20T18:24:34.634Z,1.31
2022-11-20T18:29:57.511Z,1.63
2022-11-20T18:35:25.201Z,1.46
2022-11-20T18:40:50.713Z,1.17
2022-11-20T18:46:15.354Z,1.16
2022-11-20T18:51:43.192Z,1.26
2022-11-20T18:57:08.653Z,1.52
2022-11-20T19:02:40.522Z,1.00
2022-11-20T19:08:01.332Z,1.06
2022-11-20T19:13:22.793Z,1.11
2022-11-20T19:18:49.056Z,1.00
2022-11-20T19:24:16.120Z,0.99
2022-11-20T19:29:40.652Z,0.87
2022-11-20T19:35:07.943Z,0.98
2022-11-20T19:40:29.156Z,0.92
2022-11-20T19:45:55.873Z,0.91
2022-11-20T19:51:17.270Z,1.21
2022-11-20T19:56:43.350Z,0.89
2022-11-20T20:02:10.473Z,0.82
2022-11-20T20:07:36.623Z,0.97
2022-11-20T20:13:01.098Z,1.12
2022-11-20T20:18:26.148Z,0.74
2022-11-20T20:23:52.922Z,1.03
2022-11-20T20:29:16.762Z,0.96
2022-11-20T20:34:42.871Z,0.78
2022-11-20T20:40:05.702Z,0.66
2022-11-20T20:45:29.354Z,0.72
2022-11-20T20:50:51.594Z,0.71
2022-11-20T20:56:15.687Z,0.75
2022-11-20T21:01:42.274Z,0.93
2022-11-20T21:07:06.884Z,0.87
2022-11-20T21:12:33.412Z,0.87
2022-11-20T21:18:00.104Z,0.59
2022-11-20T21:23:26.234Z,0.90
2022-11-20T21:28:50.691Z,0.76
2022-11-20T21:34:14.604Z,1.15
2022-11-20T21:39:41.969Z,0.53
2022-11-20T21:45:04.510Z,0.89
2022-11-20T21:50:29.330Z,1.01
2022-11-20T21:55:56.028Z,0.97
2022-11-20T22:01:17.274Z,0.92
2022-11-20T22:06:45.695Z,1.10
2022-11-20T22:12:11.346Z,0.90
2022-11-20T22:17:37.169Z,1.06
2022-11-20T22:23:00.365Z,0.95
2022-11-20T22:28:25.304Z,1.14
2022-11-20T22:33:46.403Z,1.03
2022-11-20T22:39:11.411Z,1.37
2022-11-20T22:44:44.900Z,1.42
2022-11-20T22:50:09.509Z,1.69
2022-11-20T22:55:40.883Z,1.71
2022-11-20T23:01:08.777Z,1.63
2022-11-20T23:06:33.868Z,1.25
2022-11-20T23:12:00.609Z,1.57
2022-11-20T23:17:25.733Z,1.11
2022-11-20T23:22:51.444Z,1.49
2022-11-20T23:28:17.931Z,1.56
2022-11-20T23:33:44.248Z,1.29
2022-11-20T23:39:09.537Z,1.47
2022-11-20T23:44:34.585Z,1.06
2022-11-20T23:50:01.629Z,1.22
2022-11-20T23:55:29.545Z,1.33
